sensor_id;sensor_type;location;lat;lon;timestamp;P1;durP1;ratioP1;P2;durP2;ratioP2
19406;SDS011;9839;53.364;-1.204;2023-03-17T00:00:01;33.47;;;14.80;;
19406;SDS011;9839;53.364;-1.204;2023-03-17T00:02:27;27.43;;;14.47;;
19406;SDS011;9839;53.364;-1.204;2023-03-17T00:04:53;31.80;;;14.57;;
19406;SDS011;9839;53.364;-1.204;2023-03-17T00:07:18;32.73;;;13.70;;
19406;SDS011;9839;53.364;-1.204;2023-03-17T00:09:44;27.60;;;14.00;;
19406;SDS011;9839;53.364;-1.204;2023-03-17T00:12:10;27.47;;;14.33;;
19406;SDS011;9839;53.364;-1.204;2023-03-17T00:14:35;31.47;;;13.83;;
19406;SDS011;9839;53.364;-1.204;2023-03-17T00:17:02;29.23;;;14.20;;
19406;SDS011;9839;53.364;-1.204;2023-03-17T00:19:28;30.20;;;14.37;;
19406;SDS011;9839;53.364;-1.204;2023-03-17T00:21:58;26.23;;;13.47;;
19406;SDS011;9839;53.364;-1.204;2023-03-17T00:24:24;29.70;;;14.47;;
19406;SDS011;9839;53.364;-1.204;2023-03-17T00:26:50;25.23;;;12.70;;
19406;SDS011;9839;53.364;-1.204;2023-03-17T00:29:15;27.37;;;13.50;;
19406;SDS011;9839;53.364;-1.204;2023-03-17T00:31:41;29.07;;;13.67;;
19406;SDS011;9839;53.364;-1.204;2023-03-17T00:34:13;28.67;;;13.83;;
19406;SDS011;9839;53.364;-1.204;2023-03-17T00:36:40;27.10;;;13.60;;
19406;SDS011;9839;53.364;-1.204;2023-03-17T00:39:10;32.53;;;15.43;;
19406;SDS011;9839;53.364;-1.204;2023-03-17T00:41:36;29.47;;;13.80;;
19406;SDS011;9839;53.364;-1.204;2023-03-17T00:44:02;29.43;;;13.60;;
19406;SDS011;9839;53.364;-1.204;2023-03-17T00:46:28;33.93;;;15.37;;
19406;SDS011;9839;53.364;-1.204;2023-03-17T00:49:00;30.93;;;14.37;;
19406;SDS011;9839;53.364;-1.204;2023-03-17T00:51:26;27.27;;;13.87;;
19406;SDS011;9839;53.364;-1.204;2023-03-17T00:53:52;27.30;;;13.90;;
19406;SDS011;9839;53.364;-1.204;2023-03-17T00:56:18;27.60;;;14.27;;
19406;SDS011;9839;53.364;-1.204;2023-03-17T00:58:44;29.07;;;13.60;;
19406;SDS011;9839;53.364;-1.204;2023-03-17T01:01:10;29.10;;;14.40;;
19406;SDS011;9839;53.364;-1.204;2023-03-17T01:03:36;32.17;;;14.37;;
19406;SDS011;9839;53.364;-1.204;2023-03-17T01:06:02;27.70;;;14.03;;
19406;SDS011;9839;53.364;-1.204;2023-03-17T01:08:29;28.23;;;15.00;;
19406;SDS011;9839;53.364;-1.204;2023-03-17T01:10:55;27.07;;;14.27;;
19406;SDS011;9839;53.364;-1.204;2023-03-17T01:13:21;27.40;;;15.10;;
19406;SDS011;9839;53.364;-1.204;2023-03-17T01:15:48;28.57;;;13.27;;
19406;SDS011;9839;53.364;-1.204;2023-03-17T01:18:15;28.00;;;12.97;;
19406;SDS011;9839;53.364;-1.204;2023-03-17T01:20:42;28.17;;;13.60;;
19406;SDS011;9839;53.364;-1.204;2023-03-17T01:23:08;31.33;;;13.73;;
19406;SDS011;9839;53.364;-1.204;2023-03-17T01:25:34;28.00;;;13.90;;
19406;SDS011;9839;53.364;-1.204;2023-03-17T01:28:01;28.10;;;13.93;;
19406;SDS011;9839;53.364;-1.204;2023-03-17T01:30:31;28.83;;;13.47;;
19406;SDS011;9839;53.364;-1.204;2023-03-17T01:32:58;30.13;;;12.77;;
19406;SDS011;9839;53.364;-1.204;2023-03-17T01:35:25;27.97;;;13.37;;
19406;SDS011;9839;53.364;-1.204;2023-03-17T01:37:53;27.10;;;13.83;;
19406;SDS011;9839;53.364;-1.204;2023-03-17T01:40:23;26.97;;;12.40;;
19406;SDS011;9839;53.364;-1.204;2023-03-17T01:42:52;27.63;;;12.40;;
19406;SDS011;9839;53.364;-1.204;2023-03-17T01:48:23;29.83;;;12.73;;
19406;SDS011;9839;53.364;-1.204;2023-03-17T01:50:50;24.00;;;11.50;;
19406;SDS011;9839;53.364;-1.204;2023-03-17T01:53:17;32.73;;;12.63;;
19406;SDS011;9839;53.364;-1.204;2023-03-17T01:55:44;25.53;;;12.40;;
19406;SDS011;9839;53.364;-1.204;2023-03-17T01:58:11;26.93;;;11.63;;
19406;SDS011;9839;53.364;-1.204;2023-03-17T02:00:36;28.00;;;12.00;;
19406;SDS011;9839;53.364;-1.204;2023-03-17T02:03:03;25.07;;;11.53;;
19406;SDS011;9839;53.364;-1.204;2023-03-17T02:05:30;21.60;;;11.13;;
19406;SDS011;9839;53.364;-1.204;2023-03-17T02:07:56;24.10;;;11.87;;
19406;SDS011;9839;53.364;-1.204;2023-03-17T02:10:23;22.07;;;11.87;;
19406;SDS011;9839;53.364;-1.204;2023-03-17T02:12:52;20.37;;;11.43;;
19406;SDS011;9839;53.364;-1.204;2023-03-17T02:15:21;23.67;;;12.37;;
19406;SDS011;9839;53.364;-1.204;2023-03-17T02:17:46;22.83;;;11.60;;
19406;SDS011;9839;53.364;-1.204;2023-03-17T02:22:44;25.17;;;12.10;;
19406;SDS011;9839;53.364;-1.204;2023-03-17T02:25:14;24.20;;;11.53;;
19406;SDS011;9839;53.364;-1.204;2023-03-17T02:27:41;25.40;;;12.17;;
19406;SDS011;9839;53.364;-1.204;2023-03-17T02:30:09;23.57;;;11.53;;
19406;SDS011;9839;53.364;-1.204;2023-03-17T02:32:36;23.87;;;11.83;;
19406;SDS011;9839;53.364;-1.204;2023-03-17T02:35:03;24.97;;;12.37;;
19406;SDS011;9839;53.364;-1.204;2023-03-17T02:37:29;23.83;;;12.37;;
19406;SDS011;9839;53.364;-1.204;2023-03-17T02:39:54;24.67;;;12.37;;
19406;SDS011;9839;53.364;-1.204;2023-03-17T02:42:20;24.87;;;11.93;;
19406;SDS011;9839;53.364;-1.204;2023-03-17T02:44:46;25.40;;;12.40;;
19406;SDS011;9839;53.364;-1.204;2023-03-17T02:47:12;27.17;;;13.37;;
19406;SDS011;9839;53.364;-1.204;2023-03-17T02:49:38;27.80;;;12.37;;
19406;SDS011;9839;53.364;-1.204;2023-03-17T02:52:05;28.23;;;11.83;;
19406;SDS011;9839;53.364;-1.204;2023-03-17T02:54:31;24.43;;;11.30;;
19406;SDS011;9839;53.364;-1.204;2023-03-17T02:56:56;23.33;;;12.37;;
19406;SDS011;9839;53.364;-1.204;2023-03-17T02:59:22;26.77;;;12.47;;
19406;SDS011;9839;53.364;-1.204;2023-03-17T03:01:47;24.30;;;11.77;;
19406;SDS011;9839;53.364;-1.204;2023-03-17T03:04:14;25.17;;;12.27;;
19406;SDS011;9839;53.364;-1.204;2023-03-17T03:06:41;28.80;;;12.20;;
19406;SDS011;9839;53.364;-1.204;2023-03-17T03:09:08;27.50;;;11.67;;
19406;SDS011;9839;53.364;-1.204;2023-03-17T03:11:36;23.87;;;11.57;;
19406;SDS011;9839;53.364;-1.204;2023-03-17T03:14:02;25.43;;;12.37;;
19406;SDS011;9839;53.364;-1.204;2023-03-17T03:16:28;18.20;;;10.53;;
19406;SDS011;9839;53.364;-1.204;2023-03-17T03:18:53;22.70;;;11.10;;
19406;SDS011;9839;53.364;-1.204;2023-03-17T03:21:19;25.03;;;11.47;;
19406;SDS011;9839;53.364;-1.204;2023-03-17T03:23:44;21.50;;;11.50;;
19406;SDS011;9839;53.364;-1.204;2023-03-17T03:26:09;27.73;;;12.03;;
19406;SDS011;9839;53.364;-1.204;2023-03-17T03:28:36;22.30;;;12.03;;
19406;SDS011;9839;53.364;-1.204;2023-03-17T03:31:01;19.30;;;10.97;;
19406;SDS011;9839;53.364;-1.204;2023-03-17T03:33:27;27.00;;;11.60;;
19406;SDS011;9839;53.364;-1.204;2023-03-17T03:35:52;24.63;;;11.23;;
19406;SDS011;9839;53.364;-1.204;2023-03-17T03:38:18;22.87;;;11.57;;
19406;SDS011;9839;53.364;-1.204;2023-03-17T03:40:43;20.37;;;10.60;;
19406;SDS011;9839;53.364;-1.204;2023-03-17T03:43:09;26.30;;;10.57;;
19406;SDS011;9839;53.364;-1.204;2023-03-17T03:45:35;19.80;;;10.30;;
19406;SDS011;9839;53.364;-1.204;2023-03-17T03:48:00;20.43;;;9.50;;
19406;SDS011;9839;53.364;-1.204;2023-03-17T03:50:25;18.03;;;9.23;;
19406;SDS011;9839;53.364;-1.204;2023-03-17T03:52:51;15.87;;;8.40;;
19406;SDS011;9839;53.364;-1.204;2023-03-17T03:55:16;17.20;;;8.90;;
19406;SDS011;9839;53.364;-1.204;2023-03-17T03:57:42;19.53;;;9.03;;
19406;SDS011;9839;53.364;-1.204;2023-03-17T04:00:08;15.77;;;8.27;;
19406;SDS011;9839;53.364;-1.204;2023-03-17T04:02:34;18.67;;;9.83;;
19406;SDS011;9839;53.364;-1.204;2023-03-17T04:05:00;19.73;;;10.07;;
19406;SDS011;9839;53.364;-1.204;2023-03-17T04:07:26;20.43;;;9.77;;
19406;SDS011;9839;53.364;-1.204;2023-03-17T04:09:52;22.97;;;9.53;;
19406;SDS011;9839;53.364;-1.204;2023-03-17T04:12:17;20.27;;;9.47;;
19406;SDS011;9839;53.364;-1.204;2023-03-17T04:14:43;14.30;;;8.53;;
19406;SDS011;9839;53.364;-1.204;2023-03-17T04:17:12;19.10;;;8.70;;
19406;SDS011;9839;53.364;-1.204;2023-03-17T04:19:38;19.40;;;9.20;;
19406;SDS011;9839;53.364;-1.204;2023-03-17T04:22:04;18.70;;;7.83;;
19406;SDS011;9839;53.364;-1.204;2023-03-17T04:24:30;18.60;;;8.40;;
19406;SDS011;9839;53.364;-1.204;2023-03-17T04:26:56;20.03;;;7.70;;
19406;SDS011;9839;53.364;-1.204;2023-03-17T04:29:21;14.50;;;7.87;;
19406;SDS011;9839;53.364;-1.204;2023-03-17T04:31:47;15.37;;;8.07;;
19406;SDS011;9839;53.364;-1.204;2023-03-17T04:34:14;16.20;;;8.23;;
19406;SDS011;9839;53.364;-1.204;2023-03-17T04:36:40;20.50;;;8.33;;
19406;SDS011;9839;53.364;-1.204;2023-03-17T04:39:07;14.13;;;7.93;;
19406;SDS011;9839;53.364;-1.204;2023-03-17T04:41:33;17.47;;;8.30;;
19406;SDS011;9839;53.364;-1.204;2023-03-17T04:43:58;14.70;;;7.30;;
19406;SDS011;9839;53.364;-1.204;2023-03-17T04:46:24;18.67;;;7.90;;
19406;SDS011;9839;53.364;-1.204;2023-03-17T04:48:49;17.90;;;7.97;;
19406;SDS011;9839;53.364;-1.204;2023-03-17T04:51:15;14.07;;;8.20;;
19406;SDS011;9839;53.364;-1.204;2023-03-17T04:53:41;15.03;;;7.63;;
19406;SDS011;9839;53.364;-1.204;2023-03-17T04:56:07;17.37;;;8.53;;
19406;SDS011;9839;53.364;-1.204;2023-03-17T04:58:32;16.10;;;7.73;;
19406;SDS011;9839;53.364;-1.204;2023-03-17T05:00:58;14.73;;;7.33;;
19406;SDS011;9839;53.364;-1.204;2023-03-17T05:03:23;22.30;;;8.37;;
19406;SDS011;9839;53.364;-1.204;2023-03-17T05:05:49;21.23;;;7.97;;
19406;SDS011;9839;53.364;-1.204;2023-03-17T05:08:15;16.57;;;7.47;;
19406;SDS011;9839;53.364;-1.204;2023-03-17T05:10:41;12.43;;;6.17;;
19406;SDS011;9839;53.364;-1.204;2023-03-17T05:13:06;13.97;;;6.37;;
19406;SDS011;9839;53.364;-1.204;2023-03-17T05:15:32;10.77;;;6.33;;
19406;SDS011;9839;53.364;-1.204;2023-03-17T05:17:57;16.03;;;6.30;;
19406;SDS011;9839;53.364;-1.204;2023-03-17T05:20:23;11.10;;;5.47;;
19406;SDS011;9839;53.364;-1.204;2023-03-17T05:22:48;14.87;;;6.13;;
19406;SDS011;9839;53.364;-1.204;2023-03-17T05:25:14;13.70;;;6.00;;
19406;SDS011;9839;53.364;-1.204;2023-03-17T05:27:40;13.50;;;5.43;;
19406;SDS011;9839;53.364;-1.204;2023-03-17T05:30:07;12.00;;;6.20;;
19406;SDS011;9839;53.364;-1.204;2023-03-17T05:32:33;13.67;;;6.83;;
19406;SDS011;9839;53.364;-1.204;2023-03-17T05:34:59;14.10;;;6.40;;
19406;SDS011;9839;53.364;-1.204;2023-03-17T05:37:25;18.90;;;7.33;;
19406;SDS011;9839;53.364;-1.204;2023-03-17T05:39:50;14.70;;;7.93;;
19406;SDS011;9839;53.364;-1.204;2023-03-17T05:42:17;14.47;;;6.93;;
19406;SDS011;9839;53.364;-1.204;2023-03-17T05:44:43;20.30;;;6.80;;
19406;SDS011;9839;53.364;-1.204;2023-03-17T05:47:08;13.47;;;6.73;;
19406;SDS011;9839;53.364;-1.204;2023-03-17T05:49:34;17.23;;;6.80;;
19406;SDS011;9839;53.364;-1.204;2023-03-17T05:51:59;13.33;;;6.33;;
19406;SDS011;9839;53.364;-1.204;2023-03-17T05:54:25;18.07;;;6.30;;
19406;SDS011;9839;53.364;-1.204;2023-03-17T05:56:50;20.23;;;6.10;;
19406;SDS011;9839;53.364;-1.204;2023-03-17T05:59:16;15.90;;;6.37;;
19406;SDS011;9839;53.364;-1.204;2023-03-17T06:01:42;18.20;;;5.50;;
19406;SDS011;9839;53.364;-1.204;2023-03-17T06:04:08;18.07;;;6.47;;
19406;SDS011;9839;53.364;-1.204;2023-03-17T06:06:33;14.67;;;5.80;;
19406;SDS011;9839;53.364;-1.204;2023-03-17T06:08:59;16.23;;;6.83;;
19406;SDS011;9839;53.364;-1.204;2023-03-17T06:11:25;15.80;;;7.60;;
19406;SDS011;9839;53.364;-1.204;2023-03-17T06:13:50;14.37;;;7.07;;
19406;SDS011;9839;53.364;-1.204;2023-03-17T06:16:16;18.37;;;7.10;;
19406;SDS011;9839;53.364;-1.204;2023-03-17T06:18:41;14.57;;;6.63;;
19406;SDS011;9839;53.364;-1.204;2023-03-17T06:21:07;19.47;;;6.90;;
19406;SDS011;9839;53.364;-1.204;2023-03-17T06:23:32;16.93;;;6.80;;
19406;SDS011;9839;53.364;-1.204;2023-03-17T06:25:58;23.07;;;7.17;;
19406;SDS011;9839;53.364;-1.204;2023-03-17T06:28:23;20.93;;;7.70;;
19406;SDS011;9839;53.364;-1.204;2023-03-17T06:30:49;16.37;;;7.90;;
19406;SDS011;9839;53.364;-1.204;2023-03-17T06:33:14;19.23;;;7.67;;
19406;SDS011;9839;53.364;-1.204;2023-03-17T06:35:42;18.93;;;8.90;;
19406;SDS011;9839;53.364;-1.204;2023-03-17T06:38:07;18.53;;;8.20;;
19406;SDS011;9839;53.364;-1.204;2023-03-17T06:40:32;18.87;;;8.73;;
19406;SDS011;9839;53.364;-1.204;2023-03-17T06:42:58;22.00;;;8.17;;
19406;SDS011;9839;53.364;-1.204;2023-03-17T06:45:24;15.87;;;7.27;;
19406;SDS011;9839;53.364;-1.204;2023-03-17T06:47:49;14.57;;;7.43;;
19406;SDS011;9839;53.364;-1.204;2023-03-17T06:50:15;13.17;;;7.27;;
19406;SDS011;9839;53.364;-1.204;2023-03-17T06:52:40;19.03;;;6.97;;
19406;SDS011;9839;53.364;-1.204;2023-03-17T06:55:06;21.97;;;6.80;;
19406;SDS011;9839;53.364;-1.204;2023-03-17T06:57:32;15.50;;;7.27;;
19406;SDS011;9839;53.364;-1.204;2023-03-17T06:59:58;21.07;;;7.23;;
19406;SDS011;9839;53.364;-1.204;2023-03-17T07:02:24;15.50;;;7.10;;
19406;SDS011;9839;53.364;-1.204;2023-03-17T07:04:50;15.10;;;6.60;;
19406;SDS011;9839;53.364;-1.204;2023-03-17T07:07:16;18.80;;;7.37;;
19406;SDS011;9839;53.364;-1.204;2023-03-17T07:09:41;19.53;;;7.53;;
19406;SDS011;9839;53.364;-1.204;2023-03-17T07:12:07;26.20;;;8.53;;
19406;SDS011;9839;53.364;-1.204;2023-03-17T07:14:34;19.43;;;8.00;;
19406;SDS011;9839;53.364;-1.204;2023-03-17T07:17:01;19.23;;;7.80;;
19406;SDS011;9839;53.364;-1.204;2023-03-17T07:19:27;19.97;;;7.20;;
19406;SDS011;9839;53.364;-1.204;2023-03-17T07:21:53;18.43;;;7.70;;
19406;SDS011;9839;53.364;-1.204;2023-03-17T07:24:22;20.93;;;7.60;;
19406;SDS011;9839;53.364;-1.204;2023-03-17T07:26:48;21.70;;;8.03;;
19406;SDS011;9839;53.364;-1.204;2023-03-17T07:29:14;15.73;;;6.20;;
19406;SDS011;9839;53.364;-1.204;2023-03-17T07:31:40;14.93;;;6.90;;
19406;SDS011;9839;53.364;-1.204;2023-03-17T07:34:05;13.70;;;5.97;;
19406;SDS011;9839;53.364;-1.204;2023-03-17T07:36:32;18.17;;;7.77;;
19406;SDS011;9839;53.364;-1.204;2023-03-17T07:38:58;15.87;;;6.30;;
19406;SDS011;9839;53.364;-1.204;2023-03-17T07:41:25;15.70;;;6.47;;
19406;SDS011;9839;53.364;-1.204;2023-03-17T07:43:51;14.33;;;6.37;;
19406;SDS011;9839;53.364;-1.204;2023-03-17T07:46:17;13.83;;;5.83;;
19406;SDS011;9839;53.364;-1.204;2023-03-17T07:48:42;17.37;;;6.63;;
19406;SDS011;9839;53.364;-1.204;2023-03-17T07:51:12;12.70;;;6.60;;
19406;SDS011;9839;53.364;-1.204;2023-03-17T07:53:38;15.50;;;6.10;;
19406;SDS011;9839;53.364;-1.204;2023-03-17T07:56:04;15.83;;;5.37;;
19406;SDS011;9839;53.364;-1.204;2023-03-17T07:58:30;19.73;;;6.83;;
19406;SDS011;9839;53.364;-1.204;2023-03-17T08:00:55;18.13;;;6.33;;
19406;SDS011;9839;53.364;-1.204;2023-03-17T08:03:21;15.53;;;6.47;;
19406;SDS011;9839;53.364;-1.204;2023-03-17T08:05:51;18.50;;;6.87;;
19406;SDS011;9839;53.364;-1.204;2023-03-17T08:08:20;11.93;;;6.10;;
19406;SDS011;9839;53.364;-1.204;2023-03-17T08:10:46;13.23;;;6.47;;
19406;SDS011;9839;53.364;-1.204;2023-03-17T08:13:14;14.40;;;5.87;;
19406;SDS011;9839;53.364;-1.204;2023-03-17T08:15:40;19.30;;;6.30;;
19406;SDS011;9839;53.364;-1.204;2023-03-17T08:18:06;14.87;;;6.03;;
19406;SDS011;9839;53.364;-1.204;2023-03-17T08:20:32;18.80;;;5.67;;
19406;SDS011;9839;53.364;-1.204;2023-03-17T08:22:58;17.37;;;6.77;;
19406;SDS011;9839;53.364;-1.204;2023-03-17T08:25:24;17.13;;;6.60;;
19406;SDS011;9839;53.364;-1.204;2023-03-17T08:27:50;18.97;;;6.47;;
19406;SDS011;9839;53.364;-1.204;2023-03-17T08:30:16;14.47;;;6.60;;
19406;SDS011;9839;53.364;-1.204;2023-03-17T08:32:42;16.83;;;6.63;;
19406;SDS011;9839;53.364;-1.204;2023-03-17T08:35:12;20.60;;;6.07;;
19406;SDS011;9839;53.364;-1.204;2023-03-17T08:37:40;14.37;;;6.23;;
19406;SDS011;9839;53.364;-1.204;2023-03-17T08:40:07;16.30;;;5.30;;
19406;SDS011;9839;53.364;-1.204;2023-03-17T08:42:34;13.30;;;5.37;;
19406;SDS011;9839;53.364;-1.204;2023-03-17T08:45:01;11.83;;;4.93;;
19406;SDS011;9839;53.364;-1.204;2023-03-17T08:47:28;11.60;;;5.00;;
19406;SDS011;9839;53.364;-1.204;2023-03-17T08:49:54;13.23;;;5.40;;
19406;SDS011;9839;53.364;-1.204;2023-03-17T08:52:20;16.23;;;5.20;;
19406;SDS011;9839;53.364;-1.204;2023-03-17T08:54:46;14.20;;;4.90;;
19406;SDS011;9839;53.364;-1.204;2023-03-17T08:57:13;14.50;;;4.90;;
19406;SDS011;9839;53.364;-1.204;2023-03-17T08:59:39;11.87;;;5.03;;
19406;SDS011;9839;53.364;-1.204;2023-03-17T09:02:05;10.97;;;4.77;;
19406;SDS011;9839;53.364;-1.204;2023-03-17T09:04:31;18.87;;;5.53;;
19406;SDS011;9839;53.364;-1.204;2023-03-17T09:06:56;11.77;;;4.83;;
19406;SDS011;9839;53.364;-1.204;2023-03-17T09:09:23;19.67;;;5.10;;
19406;SDS011;9839;53.364;-1.204;2023-03-17T09:11:48;17.13;;;4.97;;
19406;SDS011;9839;53.364;-1.204;2023-03-17T09:14:13;11.77;;;5.43;;
19406;SDS011;9839;53.364;-1.204;2023-03-17T09:16:39;19.23;;;5.83;;
19406;SDS011;9839;53.364;-1.204;2023-03-17T09:19:04;21.97;;;5.23;;
19406;SDS011;9839;53.364;-1.204;2023-03-17T09:21:30;11.27;;;4.73;;
19406;SDS011;9839;53.364;-1.204;2023-03-17T09:23:56;12.80;;;5.07;;
19406;SDS011;9839;53.364;-1.204;2023-03-17T09:26:21;11.07;;;4.13;;
19406;SDS011;9839;53.364;-1.204;2023-03-17T09:28:49;16.50;;;4.47;;
19406;SDS011;9839;53.364;-1.204;2023-03-17T09:31:14;16.83;;;4.50;;
19406;SDS011;9839;53.364;-1.204;2023-03-17T09:33:40;12.43;;;4.40;;
19406;SDS011;9839;53.364;-1.204;2023-03-17T09:36:06;13.07;;;4.40;;
19406;SDS011;9839;53.364;-1.204;2023-03-17T09:38:33;11.97;;;3.73;;
19406;SDS011;9839;53.364;-1.204;2023-03-17T09:44:01;10.43;;;3.60;;
19406;SDS011;9839;53.364;-1.204;2023-03-17T09:46:38;8.67;;;3.60;;
19406;SDS011;9839;53.364;-1.204;2023-03-17T09:49:10;12.40;;;4.10;;
19406;SDS011;9839;53.364;-1.204;2023-03-17T09:51:42;8.90;;;3.43;;
19406;SDS011;9839;53.364;-1.204;2023-03-17T09:54:14;17.27;;;2.83;;
19406;SDS011;9839;53.364;-1.204;2023-03-17T09:56:45;9.53;;;3.00;;
19406;SDS011;9839;53.364;-1.204;2023-03-17T09:59:29;10.07;;;2.97;;
19406;SDS011;9839;53.364;-1.204;2023-03-17T10:01:57;6.83;;;2.07;;
19406;SDS011;9839;53.364;-1.204;2023-03-17T10:04:23;9.20;;;2.80;;
19406;SDS011;9839;53.364;-1.204;2023-03-17T10:06:49;9.27;;;2.73;;
19406;SDS011;9839;53.364;-1.204;2023-03-17T10:09:31;13.57;;;2.93;;
19406;SDS011;9839;53.364;-1.204;2023-03-17T10:12:43;10.50;;;2.40;;
19406;SDS011;9839;53.364;-1.204;2023-03-17T10:15:15;9.20;;;2.60;;
19406;SDS011;9839;53.364;-1.204;2023-03-17T10:17:44;7.10;;;2.13;;
19406;SDS011;9839;53.364;-1.204;2023-03-17T10:22:46;10.43;;;2.57;;
19406;SDS011;9839;53.364;-1.204;2023-03-17T10:25:18;11.67;;;2.50;;
19406;SDS011;9839;53.364;-1.204;2023-03-17T10:27:51;12.30;;;2.30;;
19406;SDS011;9839;53.364;-1.204;2023-03-17T10:30:21;14.60;;;3.03;;
19406;SDS011;9839;53.364;-1.204;2023-03-17T10:32:48;10.17;;;2.60;;
19406;SDS011;9839;53.364;-1.204;2023-03-17T10:35:14;11.77;;;2.30;;
19406;SDS011;9839;53.364;-1.204;2023-03-17T10:37:40;10.03;;;2.40;;
19406;SDS011;9839;53.364;-1.204;2023-03-17T10:40:07;10.23;;;2.60;;
19406;SDS011;9839;53.364;-1.204;2023-03-17T10:42:48;7.57;;;2.60;;
19406;SDS011;9839;53.364;-1.204;2023-03-17T10:45:30;11.47;;;2.27;;
19406;SDS011;9839;53.364;-1.204;2023-03-17T10:47:58;12.63;;;3.57;;
19406;SDS011;9839;53.364;-1.204;2023-03-17T10:50:25;8.57;;;2.17;;
19406;SDS011;9839;53.364;-1.204;2023-03-17T10:55:31;11.60;;;2.03;;
19406;SDS011;9839;53.364;-1.204;2023-03-17T10:58:14;9.33;;;2.30;;
19406;SDS011;9839;53.364;-1.204;2023-03-17T11:00:54;6.90;;;1.83;;
19406;SDS011;9839;53.364;-1.204;2023-03-17T11:03:24;11.17;;;2.03;;
19406;SDS011;9839;53.364;-1.204;2023-03-17T11:08:41;10.20;;;2.00;;
19406;SDS011;9839;53.364;-1.204;2023-03-17T11:16:46;6.88;;;2.30;;
19406;SDS011;9839;53.364;-1.204;2023-03-17T11:19:17;12.23;;;2.10;;
19406;SDS011;9839;53.364;-1.204;2023-03-17T11:24:15;6.00;;;1.50;;
19406;SDS011;9839;53.364;-1.204;2023-03-17T11:26:59;7.57;;;1.92;;
19406;SDS011;9839;53.364;-1.204;2023-03-17T11:34:52;7.95;;;1.80;;
19406;SDS011;9839;53.364;-1.204;2023-03-17T11:40:11;16.00;;;2.13;;
19406;SDS011;9839;53.364;-1.204;2023-03-17T11:45:16;17.00;;;2.58;;
19406;SDS011;9839;53.364;-1.204;2023-03-17T11:48:03;33.17;;;4.28;;
19406;SDS011;9839;53.364;-1.204;2023-03-17T11:56:08;41.75;;;5.13;;
19406;SDS011;9839;53.364;-1.204;2023-03-17T11:58:38;9.30;;;1.30;;
19406;SDS011;9839;53.364;-1.204;2023-03-17T12:01:09;17.55;;;3.15;;
19406;SDS011;9839;53.364;-1.204;2023-03-17T12:03:42;11.93;;;2.08;;
19406;SDS011;9839;53.364;-1.204;2023-03-17T12:06:29;7.50;;;1.73;;
19406;SDS011;9839;53.364;-1.204;2023-03-17T12:08:58;8.60;;;2.78;;
19406;SDS011;9839;53.364;-1.204;2023-03-17T12:11:27;6.18;;;1.27;;
19406;SDS011;9839;53.364;-1.204;2023-03-17T12:13:59;7.95;;;1.27;;
19406;SDS011;9839;53.364;-1.204;2023-03-17T12:19:16;7.53;;;1.33;;
19406;SDS011;9839;53.364;-1.204;2023-03-17T12:21:50;6.25;;;1.50;;
19406;SDS011;9839;53.364;-1.204;2023-03-17T12:24:19;5.85;;;1.60;;
19406;SDS011;9839;53.364;-1.204;2023-03-17T12:32:35;9.15;;;1.60;;
19406;SDS011;9839;53.364;-1.204;2023-03-17T12:35:19;6.18;;;1.70;;
19406;SDS011;9839;53.364;-1.204;2023-03-17T12:37:50;9.32;;;1.65;;
19406;SDS011;9839;53.364;-1.204;2023-03-17T12:40:19;9.32;;;1.38;;
19406;SDS011;9839;53.364;-1.204;2023-03-17T12:43:17;9.35;;;1.58;;
19406;SDS011;9839;53.364;-1.204;2023-03-17T12:53:41;8.15;;;1.60;;
19406;SDS011;9839;53.364;-1.204;2023-03-17T12:58:44;9.30;;;1.60;;
19406;SDS011;9839;53.364;-1.204;2023-03-17T13:07:20;5.80;;;1.63;;
19406;SDS011;9839;53.364;-1.204;2023-03-17T13:12:04;9.13;;;1.77;;
19406;SDS011;9839;53.364;-1.204;2023-03-17T13:20:10;5.95;;;1.88;;
19406;SDS011;9839;53.364;-1.204;2023-03-17T13:25:14;8.73;;;1.70;;
19406;SDS011;9839;53.364;-1.204;2023-03-17T13:27:59;11.80;;;1.70;;
19406;SDS011;9839;53.364;-1.204;2023-03-17T13:38:36;9.23;;;1.20;;
19406;SDS011;9839;53.364;-1.204;2023-03-17T13:46:21;2.70;;;1.25;;
19406;SDS011;9839;53.364;-1.204;2023-03-17T13:48:49;6.07;;;1.48;;
19406;SDS011;9839;53.364;-1.204;2023-03-17T13:51:23;5.28;;;1.55;;
19406;SDS011;9839;53.364;-1.204;2023-03-17T13:53:57;6.25;;;1.08;;
19406;SDS011;9839;53.364;-1.204;2023-03-17T14:01:27;5.88;;;1.30;;
19406;SDS011;9839;53.364;-1.204;2023-03-17T14:03:54;8.95;;;1.42;;
19406;SDS011;9839;53.364;-1.204;2023-03-17T14:06:21;8.48;;;1.27;;
19406;SDS011;9839;53.364;-1.204;2023-03-17T14:08:54;10.07;;;1.23;;
19406;SDS011;9839;53.364;-1.204;2023-03-17T14:16:35;10.25;;;2.20;;
19406;SDS011;9839;53.364;-1.204;2023-03-17T14:19:18;16.50;;;5.10;;
19406;SDS011;9839;53.364;-1.204;2023-03-17T14:21:45;10.82;;;2.55;;
19406;SDS011;9839;53.364;-1.204;2023-03-17T14:24:24;7.90;;;1.52;;
19406;SDS011;9839;53.364;-1.204;2023-03-17T14:26:53;10.43;;;1.90;;
19406;SDS011;9839;53.364;-1.204;2023-03-17T14:29:24;22.88;;;8.13;;
19406;SDS011;9839;53.364;-1.204;2023-03-17T14:31:59;10.90;;;3.85;;
19406;SDS011;9839;53.364;-1.204;2023-03-17T14:34:29;7.72;;;2.08;;
19406;SDS011;9839;53.364;-1.204;2023-03-17T14:37:02;10.02;;;2.42;;
19406;SDS011;9839;53.364;-1.204;2023-03-17T14:39:28;2.83;;;1.13;;
19406;SDS011;9839;53.364;-1.204;2023-03-17T14:41:58;6.53;;;2.20;;
19406;SDS011;9839;53.364;-1.204;2023-03-17T14:44:34;7.18;;;1.90;;
19406;SDS011;9839;53.364;-1.204;2023-03-17T14:47:05;7.82;;;2.50;;
19406;SDS011;9839;53.364;-1.204;2023-03-17T14:49:36;7.32;;;1.88;;
19406;SDS011;9839;53.364;-1.204;2023-03-17T14:52:02;6.32;;;1.50;;
19406;SDS011;9839;53.364;-1.204;2023-03-17T14:54:31;4.10;;;1.27;;
19406;SDS011;9839;53.364;-1.204;2023-03-17T14:57:05;5.20;;;1.27;;
19406;SDS011;9839;53.364;-1.204;2023-03-17T14:59:32;7.47;;;1.45;;
19406;SDS011;9839;53.364;-1.204;2023-03-17T15:04:51;6.03;;;1.40;;
19406;SDS011;9839;53.364;-1.204;2023-03-17T15:07:51;10.38;;;1.13;;
19406;SDS011;9839;53.364;-1.204;2023-03-17T15:10:28;14.52;;;1.75;;
19406;SDS011;9839;53.364;-1.204;2023-03-17T15:13:01;5.88;;;1.30;;
19406;SDS011;9839;53.364;-1.204;2023-03-17T15:15:31;7.38;;;1.35;;
19406;SDS011;9839;53.364;-1.204;2023-03-17T15:18:02;4.75;;;1.48;;
19406;SDS011;9839;53.364;-1.204;2023-03-17T15:20:31;6.60;;;1.10;;
19406;SDS011;9839;53.364;-1.204;2023-03-17T15:23:02;6.00;;;1.25;;
19406;SDS011;9839;53.364;-1.204;2023-03-17T15:25:39;9.48;;;1.25;;
19406;SDS011;9839;53.364;-1.204;2023-03-17T15:28:14;2.65;;;1.10;;
19406;SDS011;9839;53.364;-1.204;2023-03-17T15:30:41;4.03;;;1.15;;
19406;SDS011;9839;53.364;-1.204;2023-03-17T15:35:48;6.05;;;1.02;;
19406;SDS011;9839;53.364;-1.204;2023-03-17T15:38:14;3.80;;;1.00;;
19406;SDS011;9839;53.364;-1.204;2023-03-17T15:40:39;1.42;;;1.00;;
19406;SDS011;9839;53.364;-1.204;2023-03-17T15:43:05;4.55;;;1.27;;
19406;SDS011;9839;53.364;-1.204;2023-03-17T15:45:30;5.40;;;1.35;;
19406;SDS011;9839;53.364;-1.204;2023-03-17T15:47:56;2.58;;;1.20;;
19406;SDS011;9839;53.364;-1.204;2023-03-17T15:50:25;5.57;;;1.70;;
19406;SDS011;9839;53.364;-1.204;2023-03-17T15:52:53;5.32;;;1.38;;
19406;SDS011;9839;53.364;-1.204;2023-03-17T15:55:23;5.95;;;1.13;;
19406;SDS011;9839;53.364;-1.204;2023-03-17T15:57:53;7.75;;;1.42;;
19406;SDS011;9839;53.364;-1.204;2023-03-17T16:00:19;5.90;;;1.55;;
19406;SDS011;9839;53.364;-1.204;2023-03-17T16:02:45;5.68;;;1.90;;
19406;SDS011;9839;53.364;-1.204;2023-03-17T16:05:30;3.72;;;1.13;;
19406;SDS011;9839;53.364;-1.204;2023-03-17T16:07:57;7.38;;;1.23;;
19406;SDS011;9839;53.364;-1.204;2023-03-17T16:10:23;5.25;;;1.08;;
19406;SDS011;9839;53.364;-1.204;2023-03-17T16:12:50;4.22;;;1.10;;
19406;SDS011;9839;53.364;-1.204;2023-03-17T16:15:17;7.25;;;1.10;;
19406;SDS011;9839;53.364;-1.204;2023-03-17T16:17:44;2.75;;;0.80;;
19406;SDS011;9839;53.364;-1.204;2023-03-17T16:20:17;5.68;;;1.25;;
19406;SDS011;9839;53.364;-1.204;2023-03-17T16:22:47;5.85;;;0.80;;